sensor_id;sensor_type;location;lat;lon;timestamp;pressure;altitude;pressure_sealevel;temperature;humidity
45888;BME280;31595;51.418;7.572;2022-10-16T00:01:19;99815.28;;;15.43;76.20
45888;BME280;31595;51.418;7.572;2022-10-16T00:03:49;99804.78;;;15.40;75.85
45888;BME280;31595;51.418;7.572;2022-10-16T00:06:20;99803.16;;;15.39;76.07
45888;BME280;31595;51.418;7.572;2022-10-16T00:08:48;99805.06;;;15.35;76.58
45888;BME280;31595;51.418;7.572;2022-10-16T00:11:17;99823.06;;;15.34;76.20
45888;BME280;31595;51.418;7.572;2022-10-16T00:13:46;99814.19;;;15.32;75.65
45888;BME280;31595;51.418;7.572;2022-10-16T00:16:14;99812.13;;;15.29;76.98
45888;BME280;31595;51.418;7.572;2022-10-16T00:18:42;99814.94;;;15.29;76.83
45888;BME280;31595;51.418;7.572;2022-10-16T00:21:12;99816.47;;;15.27;77.18
45888;BME280;31595;51.418;7.572;2022-10-16T00:23:42;99817.19;;;15.23;76.97
45888;BME280;31595;51.418;7.572;2022-10-16T00:26:11;99821.66;;;15.25;77.06
45888;BME280;31595;51.418;7.572;2022-10-16T00:28:40;99815.56;;;15.22;76.21
45888;BME280;31595;51.418;7.572;2022-10-16T00:31:09;99814.75;;;15.22;76.56
45888;BME280;31595;51.418;7.572;2022-10-16T00:33:38;99812.66;;;15.19;76.38
45888;BME280;31595;51.418;7.572;2022-10-16T00:36:07;99830.22;;;15.16;76.72
45888;BME280;31595;51.418;7.572;2022-10-16T00:38:34;99833.00;;;15.16;76.40
45888;BME280;31595;51.418;7.572;2022-10-16T00:41:05;99820.63;;;15.17;76.81
45888;BME280;31595;51.418;7.572;2022-10-16T00:43:38;99825.91;;;15.18;77.13
45888;BME280;31595;51.418;7.572;2022-10-16T00:46:13;99830.66;;;15.18;76.74
45888;BME280;31595;51.418;7.572;2022-10-16T00:48:50;99817.81;;;15.17;77.06
45888;BME280;31595;51.418;7.572;2022-10-16T00:51:21;99829.84;;;15.17;76.95
45888;BME280;31595;51.418;7.572;2022-10-16T00:53:53;99825.06;;;15.18;77.40
45888;BME280;31595;51.418;7.572;2022-10-16T00:56:25;99828.31;;;15.20;77.33
45888;BME280;31595;51.418;7.572;2022-10-16T00:58:52;99825.72;;;15.27;75.96
45888;BME280;31595;51.418;7.572;2022-10-16T01:01:20;99822.91;;;15.27;75.89
45888;BME280;31595;51.418;7.572;2022-10-16T01:03:47;99825.25;;;15.25;75.39
45888;BME280;31595;51.418;7.572;2022-10-16T01:06:25;99824.50;;;15.28;75.77
45888;BME280;31595;51.418;7.572;2022-10-16T01:09:13;99828.88;;;15.26;75.03
45888;BME280;31595;51.418;7.572;2022-10-16T01:11:48;99836.84;;;15.23;75.80
45888;BME280;31595;51.418;7.572;2022-10-16T01:14:22;99831.50;;;15.18;75.23
45888;BME280;31595;51.418;7.572;2022-10-16T01:16:55;99828.94;;;15.13;75.25
45888;BME280;31595;51.418;7.572;2022-10-16T01:19:34;99831.22;;;15.08;75.59
45888;BME280;31595;51.418;7.572;2022-10-16T01:22:06;99832.38;;;15.07;75.67
45888;BME280;31595;51.418;7.572;2022-10-16T01:24:39;99832.84;;;15.09;76.27
45888;BME280;31595;51.418;7.572;2022-10-16T01:27:12;99835.19;;;15.07;76.21
45888;BME280;31595;51.418;7.572;2022-10-16T01:29:49;99839.25;;;15.09;76.15
45888;BME280;31595;51.418;7.572;2022-10-16T01:32:24;99840.00;;;15.06;76.23
45888;BME280;31595;51.418;7.572;2022-10-16T01:34:58;99853.66;;;15.08;75.68
45888;BME280;31595;51.418;7.572;2022-10-16T01:37:33;99853.66;;;15.08;76.41
45888;BME280;31595;51.418;7.572;2022-10-16T01:40:06;99851.75;;;15.12;75.61
45888;BME280;31595;51.418;7.572;2022-10-16T01:42:40;99853.38;;;15.13;76.07
45888;BME280;31595;51.418;7.572;2022-10-16T01:45:11;99855.38;;;15.12;75.30
45888;BME280;31595;51.418;7.572;2022-10-16T01:47:40;99848.47;;;15.10;76.34
45888;BME280;31595;51.418;7.572;2022-10-16T01:50:10;99840.53;;;15.12;76.00
45888;BME280;31595;51.418;7.572;2022-10-16T01:52:41;99842.44;;;15.08;76.16
45888;BME280;31595;51.418;7.572;2022-10-16T01:55:14;99834.91;;;15.12;74.98
45888;BME280;31595;51.418;7.572;2022-10-16T01:57:46;99841.25;;;15.09;75.17
45888;BME280;31595;51.418;7.572;2022-10-16T02:00:17;99847.69;;;15.09;75.80
45888;BME280;31595;51.418;7.572;2022-10-16T02:02:49;99843.06;;;15.17;75.54
45888;BME280;31595;51.418;7.572;2022-10-16T02:05:21;99842.72;;;15.18;75.00
45888;BME280;31595;51.418;7.572;2022-10-16T02:07:50;99845.16;;;15.20;74.56
45888;BME280;31595;51.418;7.572;2022-10-16T02:10:18;99846.69;;;15.17;75.26
45888;BME280;31595;51.418;7.572;2022-10-16T02:12:50;99844.16;;;15.12;75.50
45888;BME280;31595;51.418;7.572;2022-10-16T02:15:20;99844.06;;;15.09;74.93
45888;BME280;31595;51.418;7.572;2022-10-16T02:17:48;99849.78;;;15.12;75.35
45888;BME280;31595;51.418;7.572;2022-10-16T02:20:15;99843.31;;;15.12;75.41
45888;BME280;31595;51.418;7.572;2022-10-16T02:22:44;99845.59;;;15.06;75.73
45888;BME280;31595;51.418;7.572;2022-10-16T02:25:17;99845.84;;;15.01;75.36
45888;BME280;31595;51.418;7.572;2022-10-16T02:27:53;99846.88;;;15.09;75.12
45888;BME280;31595;51.418;7.572;2022-10-16T02:30:25;99848.13;;;15.11;74.57
45888;BME280;31595;51.418;7.572;2022-10-16T02:32:55;99849.41;;;15.14;74.89
45888;BME280;31595;51.418;7.572;2022-10-16T02:35:25;99847.03;;;15.16;74.78
45888;BME280;31595;51.418;7.572;2022-10-16T02:37:55;99836.38;;;15.21;74.11
45888;BME280;31595;51.418;7.572;2022-10-16T02:40:23;99840.28;;;15.17;74.68
45888;BME280;31595;51.418;7.572;2022-10-16T02:42:53;99833.91;;;15.20;75.27
45888;BME280;31595;51.418;7.572;2022-10-16T02:45:21;99840.06;;;15.10;74.96
45888;BME280;31595;51.418;7.572;2022-10-16T02:47:49;99837.19;;;15.06;75.09
45888;BME280;31595;51.418;7.572;2022-10-16T02:50:16;99854.66;;;15.15;74.26
45888;BME280;31595;51.418;7.572;2022-10-16T02:52:44;99847.59;;;15.21;74.51
45888;BME280;31595;51.418;7.572;2022-10-16T02:55:11;99845.97;;;15.20;74.26
45888;BME280;31595;51.418;7.572;2022-10-16T02:57:38;99846.69;;;15.17;74.54
45888;BME280;31595;51.418;7.572;2022-10-16T03:00:10;99845.34;;;15.27;74.62
45888;BME280;31595;51.418;7.572;2022-10-16T03:02:38;99838.81;;;15.23;74.11
45888;BME280;31595;51.418;7.572;2022-10-16T03:05:06;99844.91;;;15.25;74.30
45888;BME280;31595;51.418;7.572;2022-10-16T03:07:34;99833.59;;;15.37;74.08
45888;BME280;31595;51.418;7.572;2022-10-16T03:10:01;99841.25;;;15.40;73.41
45888;BME280;31595;51.418;7.572;2022-10-16T03:12:29;99837.75;;;15.43;73.84
45888;BME280;31595;51.418;7.572;2022-10-16T03:14:56;99835.94;;;15.35;73.58
45888;BME280;31595;51.418;7.572;2022-10-16T03:17:25;99835.66;;;15.40;73.21
45888;BME280;31595;51.418;7.572;2022-10-16T03:19:52;99835.66;;;15.40;73.60
45888;BME280;31595;51.418;7.572;2022-10-16T03:22:19;99842.97;;;15.45;72.80
45888;BME280;31595;51.418;7.572;2022-10-16T03:24:47;99851.13;;;15.50;72.83
45888;BME280;31595;51.418;7.572;2022-10-16T03:27:14;99846.78;;;15.53;72.68
45888;BME280;31595;51.418;7.572;2022-10-16T03:29:41;99849.44;;;15.46;72.13
45888;BME280;31595;51.418;7.572;2022-10-16T03:32:08;99845.72;;;15.41;72.41
45888;BME280;31595;51.418;7.572;2022-10-16T03:34:37;99824.78;;;15.55;71.72
45888;BME280;31595;51.418;7.572;2022-10-16T03:37:06;99832.31;;;15.51;72.36
45888;BME280;31595;51.418;7.572;2022-10-16T03:39:34;99837.47;;;15.49;72.32
45888;BME280;31595;51.418;7.572;2022-10-16T03:42:01;99837.09;;;15.50;72.39
45888;BME280;31595;51.418;7.572;2022-10-16T03:44:30;99825.78;;;15.47;71.64
45888;BME280;31595;51.418;7.572;2022-10-16T03:46:58;99839.63;;;15.55;71.53
45888;BME280;31595;51.418;7.572;2022-10-16T03:49:28;99827.59;;;15.55;71.63
45888;BME280;31595;51.418;7.572;2022-10-16T03:51:56;99843.63;;;15.54;71.06
45888;BME280;31595;51.418;7.572;2022-10-16T03:54:23;99858.00;;;15.53;71.40
45888;BME280;31595;51.418;7.572;2022-10-16T03:56:51;99851.69;;;15.40;72.14
45888;BME280;31595;51.418;7.572;2022-10-16T03:59:21;99863.47;;;15.46;72.35
45888;BME280;31595;51.418;7.572;2022-10-16T04:01:48;99849.78;;;15.44;71.49
45888;BME280;31595;51.418;7.572;2022-10-16T04:04:15;99850.41;;;15.37;71.78
45888;BME280;31595;51.418;7.572;2022-10-16T04:06:43;99866.34;;;15.33;72.35
45888;BME280;31595;51.418;7.572;2022-10-16T04:09:11;99850.41;;;15.37;71.76
45888;BME280;31595;51.418;7.572;2022-10-16T04:11:40;99850.88;;;15.39;71.16
45888;BME280;31595;51.418;7.572;2022-10-16T04:14:08;99860.00;;;15.36;71.41
45888;BME280;31595;51.418;7.572;2022-10-16T04:16:35;99864.25;;;15.30;71.68
45888;BME280;31595;51.418;7.572;2022-10-16T04:19:02;99860.75;;;15.33;71.17
45888;BME280;31595;51.418;7.572;2022-10-16T04:21:29;99865.16;;;15.34;71.29
45888;BME280;31595;51.418;7.572;2022-10-16T04:23:57;99872.78;;;15.34;71.20
45888;BME280;31595;51.418;7.572;2022-10-16T04:26:25;99871.31;;;15.24;71.56
45888;BME280;31595;51.418;7.572;2022-10-16T04:28:53;99881.38;;;15.25;71.18
45888;BME280;31595;51.418;7.572;2022-10-16T04:31:20;99882.19;;;15.26;70.77
45888;BME280;31595;51.418;7.572;2022-10-16T04:33:48;99878.91;;;15.23;71.85
45888;BME280;31595;51.418;7.572;2022-10-16T04:36:15;99878.56;;;15.25;72.09
45888;BME280;31595;51.418;7.572;2022-10-16T04:38:42;99889.31;;;15.23;70.85
45888;BME280;31595;51.418;7.572;2022-10-16T04:41:09;99888.97;;;15.25;72.14
45888;BME280;31595;51.418;7.572;2022-10-16T04:43:41;99901.00;;;15.25;71.91
45888;BME280;31595;51.418;7.572;2022-10-16T04:46:08;99897.13;;;15.30;70.78
45888;BME280;31595;51.418;7.572;2022-10-16T04:48:36;99899.56;;;15.31;71.61
45888;BME280;31595;51.418;7.572;2022-10-16T04:51:03;99902.00;;;15.17;71.69
45888;BME280;31595;51.418;7.572;2022-10-16T04:53:30;99905.59;;;15.17;72.55
45888;BME280;31595;51.418;7.572;2022-10-16T04:55:59;99901.78;;;15.10;71.78
45888;BME280;31595;51.418;7.572;2022-10-16T04:58:26;99905.66;;;15.05;72.65
45888;BME280;31595;51.418;7.572;2022-10-16T05:00:54;99900.69;;;14.98;72.81
45888;BME280;31595;51.418;7.572;2022-10-16T05:03:22;99895.88;;;14.99;72.96
45888;BME280;31595;51.418;7.572;2022-10-16T05:05:49;99897.63;;;15.04;73.14
45888;BME280;31595;51.418;7.572;2022-10-16T05:08:16;99895.81;;;15.11;72.70
45888;BME280;31595;51.418;7.572;2022-10-16T05:10:44;99893.44;;;14.97;72.58
45888;BME280;31595;51.418;7.572;2022-10-16T05:13:11;99900.06;;;15.05;73.13
45888;BME280;31595;51.418;7.572;2022-10-16T05:15:38;99905.94;;;15.16;72.99
45888;BME280;31595;51.418;7.572;2022-10-16T05:18:08;99924.31;;;15.13;72.92
45888;BME280;31595;51.418;7.572;2022-10-16T05:20:35;99922.78;;;15.16;72.03
45888;BME280;31595;51.418;7.572;2022-10-16T05:23:03;99929.13;;;15.13;72.76
45888;BME280;31595;51.418;7.572;2022-10-16T05:25:30;99932.19;;;15.08;72.13
45888;BME280;31595;51.418;7.572;2022-10-16T05:27:57;99934.56;;;15.06;72.73
45888;BME280;31595;51.418;7.572;2022-10-16T05:30:24;99933.38;;;15.07;73.11
45888;BME280;31595;51.418;7.572;2022-10-16T05:32:52;99942.50;;;15.04;72.42
45888;BME280;31595;51.418;7.572;2022-10-16T05:35:21;99948.00;;;15.00;73.15
45888;BME280;31595;51.418;7.572;2022-10-16T05:37:48;99951.72;;;15.04;72.74
45888;BME280;31595;51.418;7.572;2022-10-16T05:40:15;99943.31;;;15.04;73.26
45888;BME280;31595;51.418;7.572;2022-10-16T05:42:42;99951.84;;;15.08;73.17
45888;BME280;31595;51.418;7.572;2022-10-16T05:45:10;99954.88;;;15.02;73.25
45888;BME280;31595;51.418;7.572;2022-10-16T05:47:38;99950.69;;;14.96;72.46
45888;BME280;31595;51.418;7.572;2022-10-16T05:50:06;99961.00;;;14.92;73.64
45888;BME280;31595;51.418;7.572;2022-10-16T05:52:35;99962.50;;;15.02;73.33
45888;BME280;31595;51.418;7.572;2022-10-16T05:55:03;99968.13;;;14.90;73.66
45888;BME280;31595;51.418;7.572;2022-10-16T05:57:30;99957.38;;;14.92;72.73
45888;BME280;31595;51.418;7.572;2022-10-16T05:59:58;99957.75;;;14.90;73.19
45888;BME280;31595;51.418;7.572;2022-10-16T06:02:25;99969.25;;;15.01;72.89
45888;BME280;31595;51.418;7.572;2022-10-16T06:04:52;99987.63;;;14.98;73.80
45888;BME280;31595;51.418;7.572;2022-10-16T06:07:20;99974.72;;;15.10;73.17
45888;BME280;31595;51.418;7.572;2022-10-16T06:09:49;99982.94;;;15.02;72.69
45888;BME280;31595;51.418;7.572;2022-10-16T06:12:17;99983.22;;;15.13;72.35
45888;BME280;31595;51.418;7.572;2022-10-16T06:14:44;99992.00;;;15.12;72.66
45888;BME280;31595;51.418;7.572;2022-10-16T06:17:12;99990.94;;;15.16;72.59
45888;BME280;31595;51.418;7.572;2022-10-16T06:19:40;99989.59;;;15.26;72.67
45888;BME280;31595;51.418;7.572;2022-10-16T06:22:07;99990.53;;;15.30;72.02
45888;BME280;31595;51.418;7.572;2022-10-16T06:24:34;100001.75;;;15.30;71.82
45888;BME280;31595;51.418;7.572;2022-10-16T06:27:04;100012.47;;;15.40;71.46
45888;BME280;31595;51.418;7.572;2022-10-16T06:29:31;100010.56;;;15.45;72.16
45888;BME280;31595;51.418;7.572;2022-10-16T06:31:59;100015.03;;;15.46;71.08
45888;BME280;31595;51.418;7.572;2022-10-16T06:34:26;100018.19;;;15.60;70.74
45888;BME280;31595;51.418;7.572;2022-10-16T06:36:53;100026.09;;;15.70;71.10
45888;BME280;31595;51.418;7.572;2022-10-16T06:39:21;100020.41;;;15.67;71.27
45888;BME280;31595;51.418;7.572;2022-10-16T06:41:48;100026.06;;;15.82;70.21
45888;BME280;31595;51.418;7.572;2022-10-16T06:44:17;100018.59;;;16.73;68.25
45888;BME280;31595;51.418;7.572;2022-10-16T06:46:44;100012.03;;;17.82;64.42
45888;BME280;31595;51.418;7.572;2022-10-16T06:49:11;100021.75;;;18.08;63.01
45888;BME280;31595;51.418;7.572;2022-10-16T06:51:39;100027.38;;;19.15;60.47
45888;BME280;31595;51.418;7.572;2022-10-16T06:54:07;100034.28;;;19.85;57.60
45888;BME280;31595;51.418;7.572;2022-10-16T06:56:35;100022.66;;;21.04;54.00
45888;BME280;31595;51.418;7.572;2022-10-16T06:59:03;100034.00;;;21.08;52.79
45888;BME280;31595;51.418;7.572;2022-10-16T07:01:32;100030.63;;;21.72;51.93
45888;BME280;31595;51.418;7.572;2022-10-16T07:04:00;100038.75;;;21.88;51.67
45888;BME280;31595;51.418;7.572;2022-10-16T07:06:31;100040.81;;;22.13;50.56
45888;BME280;31595;51.418;7.572;2022-10-16T07:09:02;100056.13;;;21.65;51.18
45888;BME280;31595;51.418;7.572;2022-10-16T07:11:29;100063.47;;;20.96;52.91
45888;BME280;31595;51.418;7.572;2022-10-16T07:13:57;100067.28;;;20.63;53.53
45888;BME280;31595;51.418;7.572;2022-10-16T07:16:25;100068.78;;;21.05;52.69
45888;BME280;31595;51.418;7.572;2022-10-16T07:18:55;100078.84;;;20.43;54.33
45888;BME280;31595;51.418;7.572;2022-10-16T07:21:25;100080.16;;;20.57;54.24
45888;BME280;31595;51.418;7.572;2022-10-16T07:23:55;100088.84;;;20.78;53.55
45888;BME280;31595;51.418;7.572;2022-10-16T07:26:24;100086.53;;;21.72;51.36
45888;BME280;31595;51.418;7.572;2022-10-16T07:28:51;100099.63;;;22.55;49.18
45888;BME280;31595;51.418;7.572;2022-10-16T07:31:20;100094.09;;;23.76;46.87
45888;BME280;31595;51.418;7.572;2022-10-16T07:33:48;100098.19;;;24.90;44.51
45888;BME280;31595;51.418;7.572;2022-10-16T07:36:17;100105.44;;;24.98;43.14
45888;BME280;31595;51.418;7.572;2022-10-16T07:38:45;100098.47;;;25.75;42.34
45888;BME280;31595;51.418;7.572;2022-10-16T07:41:15;100109.28;;;26.45;40.88
45888;BME280;31595;51.418;7.572;2022-10-16T07:43:46;100110.38;;;26.28;40.35
45888;BME280;31595;51.418;7.572;2022-10-16T07:46:13;100103.56;;;26.72;39.20
45888;BME280;31595;51.418;7.572;2022-10-16T07:48:42;100106.16;;;26.87;38.82
45888;BME280;31595;51.418;7.572;2022-10-16T07:51:14;100102.53;;;27.90;37.67
45888;BME280;31595;51.418;7.572;2022-10-16T07:53:43;100107.03;;;27.51;37.44
45888;BME280;31595;51.418;7.572;2022-10-16T07:56:11;100111.63;;;27.25;37.99
45888;BME280;31595;51.418;7.572;2022-10-16T07:58:39;100120.72;;;25.87;40.16
45888;BME280;31595;51.418;7.572;2022-10-16T08:01:09;100121.53;;;25.88;40.39
45888;BME280;31595;51.418;7.572;2022-10-16T08:03:36;100123.44;;;24.88;42.28
45888;BME280;31595;51.418;7.572;2022-10-16T08:06:04;100130.81;;;23.34;45.46
45888;BME280;31595;51.418;7.572;2022-10-16T08:08:32;100132.50;;;23.10;46.04
45888;BME280;31595;51.418;7.572;2022-10-16T08:11:01;100137.34;;;22.74;46.99
45888;BME280;31595;51.418;7.572;2022-10-16T08:13:29;100144.81;;;21.69;49.33
45888;BME280;31595;51.418;7.572;2022-10-16T08:15:57;100154.34;;;22.27;49.23
45888;BME280;31595;51.418;7.572;2022-10-16T08:18:24;100153.25;;;24.76;44.04
45888;BME280;31595;51.418;7.572;2022-10-16T08:20:57;100157.38;;;27.01;39.41
45888;BME280;31595;51.418;7.572;2022-10-16T08:23:26;100156.56;;;27.88;36.99
45888;BME280;31595;51.418;7.572;2022-10-16T08:25:55;100152.38;;;28.65;35.52
45888;BME280;31595;51.418;7.572;2022-10-16T08:28:24;100153.94;;;29.32;34.50
45888;BME280;31595;51.418;7.572;2022-10-16T08:30:51;100152.91;;;29.84;32.90
45888;BME280;31595;51.418;7.572;2022-10-16T08:33:19;100159.41;;;30.78;32.41
45888;BME280;31595;51.418;7.572;2022-10-16T08:35:53;100161.91;;;31.93;29.89
45888;BME280;31595;51.418;7.572;2022-10-16T08:38:20;100165.56;;;32.38;29.07
45888;BME280;31595;51.418;7.572;2022-10-16T08:40:51;100163.63;;;32.35;28.76
45888;BME280;31595;51.418;7.572;2022-10-16T08:43:31;100168.09;;;31.83;29.51
45888;BME280;31595;51.418;7.572;2022-10-16T08:46:24;100168.56;;;33.15;27.79
45888;BME280;31595;51.418;7.572;2022-10-16T08:48:59;100188.41;;;33.04;27.81
45888;BME280;31595;51.418;7.572;2022-10-16T08:51:30;100185.47;;;33.63;26.18
45888;BME280;31595;51.418;7.572;2022-10-16T08:54:00;100188.34;;;34.61;25.38
45888;BME280;31595;51.418;7.572;2022-10-16T08:56:29;100189.78;;;34.56;24.65
45888;BME280;31595;51.418;7.572;2022-10-16T08:59:00;100191.19;;;34.19;25.87
45888;BME280;31595;51.418;7.572;2022-10-16T09:01:38;100204.97;;;34.85;24.78
45888;BME280;31595;51.418;7.572;2022-10-16T09:04:22;100197.06;;;35.19;23.25
45888;BME280;31595;51.418;7.572;2022-10-16T09:06:56;100214.16;;;35.80;22.38
45888;BME280;31595;51.418;7.572;2022-10-16T09:09:34;100212.00;;;36.04;22.66
45888;BME280;31595;51.418;7.572;2022-10-16T09:12:05;100213.22;;;36.57;22.20
45888;BME280;31595;51.418;7.572;2022-10-16T09:14:47;100215.34;;;36.42;21.92
45888;BME280;31595;51.418;7.572;2022-10-16T09:17:28;100220.25;;;37.01;20.88
45888;BME280;31595;51.418;7.572;2022-10-16T09:20:09;100226.13;;;36.41;21.99
45888;BME280;31595;51.418;7.572;2022-10-16T09:22:40;100226.72;;;36.60;21.75
45888;BME280;31595;51.418;7.572;2022-10-16T09:25:11;100233.28;;;36.01;21.86
45888;BME280;31595;51.418;7.572;2022-10-16T09:27:40;100231.22;;;35.39;22.42
45888;BME280;31595;51.418;7.572;2022-10-16T09:30:14;100221.69;;;34.38;23.55
45888;BME280;31595;51.418;7.572;2022-10-16T09:32:43;100215.31;;;35.58;22.32
45888;BME280;31595;51.418;7.572;2022-10-16T09:35:16;100225.50;;;34.53;22.87
45888;BME280;31595;51.418;7.572;2022-10-16T09:37:49;100233.44;;;35.10;22.72
45888;BME280;31595;51.418;7.572;2022-10-16T09:40:25;100225.81;;;34.55;22.70
45888;BME280;31595;51.418;7.572;2022-10-16T09:43:00;100237.88;;;33.34;24.71
45888;BME280;31595;51.418;7.572;2022-10-16T09:45:29;100240.75;;;34.54;23.33
45888;BME280;31595;51.418;7.572;2022-10-16T09:47:56;100228.84;;;35.28;22.35
45888;BME280;31595;51.418;7.572;2022-10-16T09:50:28;100239.66;;;36.14;22.05
45888;BME280;31595;51.418;7.572;2022-10-16T09:53:07;100239.97;;;36.31;21.75
45888;BME280;31595;51.418;7.572;2022-10-16T09:55:35;100251.50;;;36.02;21.90
45888;BME280;31595;51.418;7.572;2022-10-16T09:58:02;100239.56;;;35.12;22.60
45888;BME280;31595;51.418;7.572;2022-10-16T10:00:31;100237.97;;;34.78;23.60
45888;BME280;31595;51.418;7.572;2022-10-16T10:02:58;100248.59;;;36.02;22.05
45888;BME280;31595;51.418;7.572;2022-10-16T10:05:29;100246.88;;;34.37;23.76
45888;BME280;31595;51.418;7.572;2022-10-16T10:07:58;100249.69;;;32.68;25.57
45888;BME280;31595;51.418;7.572;2022-10-16T10:10:27;100250.56;;;31.89;26.72
45888;BME280;31595;51.418;7.572;2022-10-16T10:12:58;100243.72;;;33.80;25.33
45888;BME280;31595;51.418;7.572;2022-10-16T10:15:28;100252.63;;;31.67;28.16
45888;BME280;31595;51.418;7.572;2022-10-16T10:18:01;100249.13;;;31.72;27.99
45888;BME280;31595;51.418;7.572;2022-10-16T10:20:31;100256.31;;;30.94;29.77
45888;BME280;31595;51.418;7.572;2022-10-16T10:23:00;100266.16;;;31.31;28.25
45888;BME280;31595;51.418;7.572;2022-10-16T10:25:44;100258.16;;;33.62;25.15
45888;BME280;31595;51.418;7.572;2022-10-16T10:31:22;100262.81;;;35.27;23.68
45888;BME280;31595;51.418;7.572;2022-10-16T10:33:58;100259.91;;;36.00;21.79
45888;BME280;31595;51.418;7.572;2022-10-16T10:36:33;100252.13;;;36.06;21.74
45888;BME280;31595;51.418;7.572;2022-10-16T10:39:07;100256.88;;;36.48;22.29
45888;BME280;31595;51.418;7.572;2022-10-16T10:42:05;100264.00;;;37.12;21.01
45888;BME280;31595;51.418;7.572;2022-10-16T10:44:54;100254.31;;;37.97;20.99
45888;BME280;31595;51.418;7.572;2022-10-16T10:47:34;100253.94;;;38.94;19.10
45888;BME280;31595;51.418;7.572;2022-10-16T10:50:14;100252.97;;;39.03;19.59
45888;BME280;31595;51.418;7.572;2022-10-16T10:52:53;100252.28;;;39.19;19.18
45888;BME280;31595;51.418;7.572;2022-10-16T10:55:31;100256.72;;;36.87;20.54
45888;BME280;31595;51.418;7.572;2022-10-16T11:00:58;100265.56;;;36.48;21.88
45888;BME280;31595;51.418;7.572;2022-10-16T11:03:40;100267.50;;;37.16;21.19
45888;BME280;31595;51.418;7.572;2022-10-16T11:06:15;100260.22;;;36.91;21.33
45888;BME280;31595;51.418;7.572;2022-10-16T11:08:46;100262.28;;;37.76;20.87
45888;BME280;31595;51.418;7.572;2022-10-16T11:11:20;100252.09;;;37.66;20.27
45888;BME280;31595;51.418;7.572;2022-10-16T11:13:55;100248.13;;;38.36;19.74
45888;BME280;31595;51.418;7.572;2022-10-16T11:16:27;100254.81;;;38.68;19.95
45888;BME280;31595;51.418;7.572;2022-10-16T11:18:59;100259.88;;;38.73;19.71
45888;BME280;31595;51.418;7.572;2022-10-16T11:21:39;100259.16;;;39.22;19.15
45888;BME280;31595;51.418;7.572;2022-10-16T11:24:15;100266.34;;;39.26;18.88
45888;BME280;31595;51.418;7.572;2022-10-16T11:26:46;100264.66;;;39.08;19.23
45888;BME280;31595;51.418;7.572;2022-10-16T11:29:19;100263.75;;;39.39;19.25
45888;BME280;31595;51.418;7.572;2022-10-16T11:31:51;100260.59;;;39.86;18.82
45888;BME280;31595;51.418;7.572;2022-10-16T11:34:23;100259.94;;;39.60;18.69
45888;BME280;31595;51.418;7.572;2022-10-16T11:36:58;100262.13;;;39.82;18.41
45888;BME280;31595;51.418;7.572;2022-10-16T11:39:29;100269.53;;;39.71;18.21
45888;BME280;31595;51.418;7.572;2022-10-16T11:42:02;100268.88;;;40.16;17.84
45888;BME280;31595;51.418;7.572;2022-10-16T11:44:44;100257.47;;;39.04;18.86
45888;BME280;31595;51.418;7.572;2022-10-16T11:47:26;100271.63;;;38.90;18.21
45888;BME280;31595;51.418;7.572;2022-10-16T11:49:59;100257.78;;;38.48;18.05
45888;BME280;31595;51.418;7.572;2022-10-16T11:52:35;100280.94;;;36.98;19.65
45888;BME280;31595;51.418;7.572;2022-10-16T11:55:13;100273.84;;;37.35;19.69
45888;BME280;31595;51.418;7.572;2022-10-16T11:57:44;100260.38;;;37.73;19.52
45888;BME280;31595;51.418;7.572;2022-10-16T12:00:21;100267.63;;;37.83;18.68
45888;BME280;31595;51.418;7.572;2022-10-16T12:02:56;100259.72;;;37.84;18.72
45888;BME280;31595;51.418;7.572;2022-10-16T12:05:29;100263.84;;;37.77;19.21
45888;BME280;31595;51.418;7.572;2022-10-16T12:08:08;100269.38;;;37.34;18.83
45888;BME280;31595;51.418;7.572;2022-10-16T12:10:38;100269.06;;;37.32;19.80
45888;BME280;31595;51.418;7.572;2022-10-16T12:13:28;100278.50;;;37.27;19.55
45888;BME280;31595;51.418;7.572;2022-10-16T12:16:05;100276.41;;;36.08;19.83
45888;BME280;31595;51.418;7.572;2022-10-16T12:18:32;100281.94;;;36.21;20.30
45888;BME280;31595;51.418;7.572;2022-10-16T12:21:00;100287.19;;;35.11;21.05
45888;BME280;31595;51.418;7.572;2022-10-16T12:23:33;100285.63;;;35.58;20.84
45888;BME280;31595;51.418;7.572;2022-10-16T12:26:04;100283.66;;;35.41;21.48
45888;BME280;31595;51.418;7.572;2022-10-16T12:28:32;100301.09;;;34.89;20.84
45888;BME280;31595;51.418;7.572;2022-10-16T12:31:02;100285.09;;;34.69;21.35
45888;BME280;31595;51.418;7.572;2022-10-16T12:33:32;100284.50;;;35.32;21.23
45888;BME280;31595;51.418;7.572;2022-10-16T12:36:02;100278.56;;;34.93;21.59
45888;BME280;31595;51.418;7.572;2022-10-16T12:38:37;100287.09;;;34.96;21.95
45888;BME280;31595;51.418;7.572;2022-10-16T12:41:06;100295.63;;;34.91;22.19
45888;BME280;31595;51.418;7.572;2022-10-16T12:43:38;100290.63;;;34.91;22.24
45888;BME280;31595;51.418;7.572;2022-10-16T12:46:21;100285.34;;;35.23;21.70
45888;BME280;31595;51.418;7.572;2022-10-16T12:48:49;100296.06;;;34.37;22.41
45888;BME280;31595;51.418;7.572;2022-10-16T12:51:24;100279.88;;;33.94;23.16
45888;BME280;31595;51.418;7.572;2022-10-16T12:54:04;100281.19;;;33.34;23.77
45888;BME280;31595;51.418;7.572;2022-10-16T12:56:39;100283.72;;;34.00;23.37
45888;BME280;31595;51.418;7.572;2022-10-16T12:59:17;100285.41;;;33.42;23.20
45888;BME280;31595;51.418;7.572;2022-10-16T13:01:56;100283.47;;;33.48;23.97
45888;BME280;31595;51.418;7.572;2022-10-16T13:04:35;100304.66;;;32.73;24.31
45888;BME280;31595;51.418;7.572;2022-10-16T13:07:21;100311.66;;;32.63;24.32
45888;BME280;31595;51.418;7.572;2022-10-16T13:10:05;100302.81;;;32.35;25.33
45888;BME280;31595;51.418;7.572;2022-10-16T13:12:50;100303.88;;;32.07;25.49
45888;BME280;31595;51.418;7.572;2022-10-16T13:15:34;100307.97;;;32.19;25.20
45888;BME280;31595;51.418;7.572;2022-10-16T13:18:13;100315.28;;;31.63;25.09
45888;BME280;31595;51.418;7.572;2022-10-16T13:20:56;100316.47;;;31.01;27.12